Time;durP1;ratioP1;P1;durP2;ratioP2;P2;SDS_P1;SDS_P2;PMS_P1;PMS_P2;Temp;Humidity;BMP_temperature;BMP_pressure;BME280_temperature;BME280_humidity;BME280_pressure;Samples;Min_cycle;Max_cycle;Signal;HPM_P1;HPM_P2
2020/12/20 00:00:13;;;;;;;16.48;11.50;;;9.10;99.90;;;;;;5052277;28;20072;-79
2020/12/20 00:02:38;;;;;;;27.52;12.77;;;9.00;99.90;;;;;;5051035;28;20029;-79
2020/12/20 00:05:06;;;;;;;26.33;12.23;;;9.10;99.90;;;;;;5050705;28;20036;-79
2020/12/20 00:07:31;;;;;;;21.02;12.07;;;9.10;99.90;;;;;;5052035;28;20079;-79
2020/12/20 00:09:57;;;;;;;20.23;12.32;;;9.00;99.90;;;;;;5052046;28;20029;-79
2020/12/20 00:12:22;;;;;;;18.40;11.23;;;9.00;99.90;;;;;;5052103;28;20465;-79
2020/12/20 00:14:48;;;;;;;18.95;12.23;;;9.10;99.90;;;;;;5051876;28;20025;-79
2020/12/20 00:17:15;;;;;;;29.88;13.38;;;9.10;99.90;;;;;;5051837;28;20037;-79
2020/12/20 00:19:41;;;;;;;21.38;14.40;;;9.00;99.90;;;;;;5051979;28;20033;-79
2020/12/20 00:22:12;;;;;;;26.05;15.15;;;8.90;99.90;;;;;;5051819;28;20033;-79
2020/12/20 00:24:38;;;;;;;28.60;15.23;;;8.80;99.90;;;;;;5051727;28;20029;-79
2020/12/20 00:27:05;;;;;;;26.33;15.93;;;8.70;99.90;;;;;;5051959;28;20098;-79
2020/12/20 00:29:32;;;;;;;31.85;15.68;;;8.70;99.90;;;;;;5051773;28;20028;-79
2020/12/20 00:31:59;;;;;;;26.02;14.77;;;8.60;99.90;;;;;;5051827;28;20074;-79
2020/12/20 00:34:25;;;;;;;25.35;16.98;;;8.60;99.90;;;;;;5051550;28;20032;-79
2020/12/20 00:36:51;;;;;;;25.60;15.32;;;8.60;99.90;;;;;;5051704;28;20025;-79
2020/12/20 00:39:19;;;;;;;25.15;15.98;;;8.60;99.90;;;;;;5051698;28;20021;-79
2020/12/20 00:41:56;;;;;;;25.17;18.17;;;8.60;99.90;;;;;;5051738;28;20036;-79
2020/12/20 00:44:22;;;;;;;27.95;16.38;;;8.60;99.90;;;;;;5051550;28;20025;-79
2020/12/20 00:46:49;;;;;;;32.83;16.33;;;8.60;99.90;;;;;;5051628;28;20033;-79
2020/12/20 00:49:14;;;;;;;35.80;18.25;;;8.60;99.90;;;;;;5051491;28;20363;-79
2020/12/20 00:51:40;;;;;;;33.30;16.38;;;8.50;99.90;;;;;;5056455;28;20024;-79
2020/12/20 00:54:06;;;;;;;27.45;17.30;;;8.50;99.90;;;;;;5075113;28;20032;-79
2020/12/20 00:56:32;;;;;;;36.55;17.17;;;8.50;99.90;;;;;;5075622;28;20025;-79
2020/12/20 00:58:58;;;;;;;27.83;17.70;;;8.50;99.90;;;;;;5075405;28;20485;-79
2020/12/20 01:01:24;;;;;;;29.35;17.13;;;8.50;99.90;;;;;;5075436;28;20039;-79
2020/12/20 01:03:50;;;;;;;29.58;18.38;;;8.40;99.90;;;;;;5075365;28;20048;-79
2020/12/20 01:06:21;;;;;;;31.25;17.88;;;8.50;99.90;;;;;;5074222;28;20143;-79
2020/12/20 01:08:47;;;;;;;26.88;16.80;;;8.50;99.90;;;;;;5075549;28;20024;-79
2020/12/20 01:11:14;;;;;;;27.20;17.23;;;8.50;99.90;;;;;;5074103;28;20127;-79
2020/12/20 01:13:43;;;;;;;28.17;16.45;;;8.50;99.90;;;;;;5074001;28;20384;-79
2020/12/20 01:16:26;;;;;;;25.80;15.40;;;8.50;99.90;;;;;;5075119;28;20493;-79
2020/12/20 01:18:56;;;;;;;27.98;15.73;;;8.40;99.90;;;;;;5075287;28;20028;-79
2020/12/20 01:21:22;;;;;;;27.35;16.05;;;8.50;99.90;;;;;;5075270;28;20042;-79
2020/12/20 01:23:48;;;;;;;24.50;14.65;;;8.50;99.90;;;;;;5075015;28;20052;-79
2020/12/20 01:26:14;;;;;;;26.90;15.68;;;8.40;99.90;;;;;;5073823;28;20020;-79
2020/12/20 01:28:40;;;;;;;21.45;14.13;;;8.40;99.90;;;;;;5073838;28;20028;-79
2020/12/20 01:31:07;;;;;;;22.35;13.60;;;8.30;99.90;;;;;;5073727;28;20503;-79
2020/12/20 01:33:36;;;;;;;27.33;15.48;;;8.30;99.90;;;;;;5073650;28;20691;-79
2020/12/20 01:36:04;;;;;;;27.27;15.38;;;8.20;99.90;;;;;;5073585;28;20127;-79
2020/12/20 01:38:29;;;;;;;24.42;14.73;;;8.20;99.90;;;;;;5074882;28;20016;-79
2020/12/20 01:40:55;;;;;;;26.92;14.05;;;8.20;99.90;;;;;;5074896;28;20032;-79
2020/12/20 01:43:21;;;;;;;24.77;14.77;;;8.20;99.90;;;;;;5074792;28;20092;-79
2020/12/20 01:45:47;;;;;;;22.90;14.60;;;8.10;99.90;;;;;;5074541;28;20039;-79
2020/12/20 01:48:13;;;;;;;20.10;13.73;;;8.00;99.90;;;;;;5073389;28;20021;-79
2020/12/20 01:50:39;;;;;;;32.50;14.88;;;7.90;99.90;;;;;;5074675;28;20039;-79
2020/12/20 01:53:05;;;;;;;28.95;13.88;;;7.90;99.90;;;;;;5056596;28;20029;-79
2020/12/20 01:55:32;;;;;;;27.00;15.77;;;7.80;99.90;;;;;;5054474;28;20482;-79
2020/12/20 01:57:58;;;;;;;22.17;15.13;;;7.70;99.90;;;;;;5054222;28;20473;-79
2020/12/20 02:00:24;;;;;;;28.88;16.25;;;7.70;99.90;;;;;;5054502;28;20033;-79
2020/12/20 02:02:49;;;;;;;25.77;17.08;;;7.60;99.90;;;;;;5054440;28;20039;-79
2020/12/20 02:05:15;;;;;;;26.90;17.23;;;7.50;99.90;;;;;;5054145;28;20080;-79
2020/12/20 02:07:41;;;;;;;33.42;17.38;;;7.60;99.90;;;;;;5053024;28;20051;-79
2020/12/20 02:10:07;;;;;;;34.85;18.15;;;7.60;99.90;;;;;;5052985;28;20059;-79
2020/12/20 02:12:33;;;;;;;32.22;17.58;;;7.60;99.90;;;;;;5052937;28;20029;-79
2020/12/20 02:14:58;;;;;;;27.20;17.30;;;7.60;99.90;;;;;;5052822;28;20017;-79
2020/12/20 02:17:24;;;;;;;27.83;17.33;;;7.60;99.90;;;;;;5054062;28;20041;-79
2020/12/20 02:19:49;;;;;;;25.27;17.10;;;7.60;99.90;;;;;;5052864;28;20086;-79
2020/12/20 02:22:15;;;;;;;27.30;17.05;;;7.60;99.90;;;;;;5054095;28;20048;-79
2020/12/20 02:24:42;;;;;;;25.40;17.25;;;7.70;99.90;;;;;;5052584;28;20118;-79
2020/12/20 02:27:08;;;;;;;33.10;17.48;;;7.80;99.90;;;;;;5052591;28;20024;-79
2020/12/20 02:29:34;;;;;;;30.17;19.05;;;7.70;99.90;;;;;;5052667;28;20083;-79
2020/12/20 02:31:59;;;;;;;29.85;19.17;;;7.70;99.90;;;;;;5053852;28;20412;-78
2020/12/20 02:34:25;;;;;;;30.40;17.98;;;7.70;99.90;;;;;;5053691;28;20392;-79
2020/12/20 02:36:51;;;;;;;27.95;19.35;;;7.70;99.90;;;;;;5053750;28;20025;-80
2020/12/20 02:39:17;;;;;;;31.55;18.20;;;7.70;99.90;;;;;;5053793;28;20056;-79
2020/12/20 02:41:43;;;;;;;30.40;18.85;;;7.70;99.90;;;;;;5053721;28;20053;-79
2020/12/20 02:44:09;;;;;;;31.85;19.48;;;7.60;99.90;;;;;;5052287;28;20021;-79
2020/12/20 02:46:34;;;;;;;34.97;20.63;;;7.70;99.90;;;;;;5053525;28;20025;-79
2020/12/20 02:49:01;;;;;;;34.08;20.98;;;7.70;99.90;;;;;;5053655;28;20067;-79
2020/12/20 02:51:27;;;;;;;38.35;21.63;;;7.60;99.90;;;;;;5053490;28;20026;-79
2020/12/20 02:53:53;;;;;;;33.83;19.85;;;7.70;99.90;;;;;;5068765;28;20557;-79
2020/12/20 02:56:22;;;;;;;30.50;20.60;;;7.60;99.90;;;;;;5053292;28;20060;-79
2020/12/20 02:58:49;;;;;;;30.10;19.08;;;7.60;99.90;;;;;;5068810;28;20100;-79
2020/12/20 03:01:15;;;;;;;32.50;20.90;;;7.60;99.90;;;;;;5053426;28;20032;-79
2020/12/20 03:03:40;;;;;;;39.33;21.80;;;7.60;99.90;;;;;;5053294;28;20119;-79
2020/12/20 03:06:06;;;;;;;39.67;20.65;;;7.50;99.90;;;;;;5068645;28;20603;-79
2020/12/20 03:08:33;;;;;;;30.23;20.45;;;7.50;99.90;;;;;;5053170;28;20021;-79
2020/12/20 03:10:59;;;;;;;34.47;21.38;;;7.40;99.90;;;;;;5053050;28;20032;-79
2020/12/20 03:13:25;;;;;;;35.83;20.80;;;7.40;99.90;;;;;;5053108;28;20497;-79
2020/12/20 03:15:51;;;;;;;34.55;21.70;;;7.40;99.90;;;;;;5052114;28;20119;-79
2020/12/20 03:18:16;;;;;;;34.45;21.60;;;7.50;99.90;;;;;;5068368;28;20028;-79
2020/12/20 03:20:42;;;;;;;35.63;21.80;;;7.40;99.90;;;;;;5053009;28;20028;-79
2020/12/20 03:23:07;;;;;;;38.20;21.00;;;7.40;99.90;;;;;;5053018;28;20025;-79
2020/12/20 03:25:34;;;;;;;31.30;22.23;;;7.40;99.90;;;;;;5052612;28;20033;-79
2020/12/20 03:27:59;;;;;;;42.45;22.10;;;7.40;99.90;;;;;;5052876;28;20034;-79
2020/12/20 03:30:26;;;;;;;36.92;22.10;;;7.40;99.90;;;;;;5052712;28;20033;-78
2020/12/20 03:32:52;;;;;;;40.92;21.38;;;7.40;99.90;;;;;;5068181;28;20489;-79
2020/12/20 03:35:18;;;;;;;37.13;22.60;;;7.30;99.90;;;;;;5067923;28;20032;-79
2020/12/20 03:37:52;;;;;;;35.50;22.17;;;7.30;99.90;;;;;;5052635;28;20493;-79
2020/12/20 03:40:20;;;;;;;34.97;22.30;;;7.30;99.90;;;;;;5052596;28;20035;-79
2020/12/20 03:42:46;;;;;;;41.63;21.10;;;7.30;99.90;;;;;;5052621;28;20028;-79
2020/12/20 03:45:14;;;;;;;41.88;21.90;;;7.30;99.90;;;;;;5067690;28;20059;-79
2020/12/20 03:47:40;;;;;;;41.72;22.10;;;7.30;99.90;;;;;;5066978;28;20033;-80
2020/12/20 03:50:05;;;;;;;40.30;21.73;;;7.30;99.90;;;;;;5067147;28;20048;-79
2020/12/20 03:52:31;;;;;;;35.95;22.40;;;7.30;99.90;;;;;;5065500;28;20024;-79
2020/12/20 03:55:00;;;;;;;33.58;21.23;;;7.20;99.90;;;;;;5072365;28;20061;-79
2020/12/20 03:57:25;;;;;;;44.90;22.42;;;7.20;99.90;;;;;;5072214;28;20025;-79
2020/12/20 03:59:51;;;;;;;32.63;20.95;;;7.10;99.90;;;;;;5072227;28;20120;-79
2020/12/20 04:02:16;;;;;;;38.22;22.40;;;7.10;99.90;;;;;;5072210;28;20102;-79
2020/12/20 04:04:42;;;;;;;38.13;21.50;;;7.10;99.90;;;;;;5072047;28;20037;-79
2020/12/20 04:07:08;;;;;;;35.25;22.55;;;7.00;99.90;;;;;;5070411;28;20030;-79
2020/12/20 04:09:33;;;;;;;39.97;21.42;;;7.00;99.90;;;;;;5071989;28;20044;-80
2020/12/20 04:12:00;;;;;;;36.40;23.02;;;7.00;99.90;;;;;;5070891;28;20107;-79
2020/12/20 04:14:25;;;;;;;34.63;21.30;;;7.00;99.90;;;;;;5071828;28;20048;-79
2020/12/20 04:16:51;;;;;;;38.70;21.95;;;7.00;99.90;;;;;;5070614;28;20420;-79
2020/12/20 04:19:16;;;;;;;37.05;22.70;;;7.00;99.90;;;;;;5072074;28;20028;-79
2020/12/20 04:21:42;;;;;;;39.65;21.77;;;7.00;99.90;;;;;;5070596;28;20503;-79
2020/12/20 04:24:07;;;;;;;46.92;23.40;;;7.00;99.90;;;;;;5071848;28;20037;-79
2020/12/20 04:26:33;;;;;;;38.33;23.17;;;7.00;99.90;;;;;;5070069;28;20036;-79
2020/12/20 04:28:58;;;;;;;38.28;22.65;;;7.00;99.90;;;;;;5070293;28;20020;-79
2020/12/20 04:31:24;;;;;;;36.13;21.23;;;7.00;99.90;;;;;;5071808;28;20025;-79
2020/12/20 04:33:50;;;;;;;33.58;20.65;;;7.10;99.90;;;;;;5071673;28;20025;-79
2020/12/20 04:36:16;;;;;;;45.47;22.95;;;7.00;99.90;;;;;;5071731;28;20029;-79
2020/12/20 04:38:42;;;;;;;38.70;20.52;;;7.00;99.90;;;;;;5070541;28;20542;-79
2020/12/20 04:41:09;;;;;;;34.88;20.23;;;7.00;99.90;;;;;;5071817;28;20033;-79
2020/12/20 04:43:35;;;;;;;39.35;21.35;;;7.10;99.90;;;;;;5070564;28;20028;-80
2020/12/20 04:46:02;;;;;;;34.88;20.77;;;7.10;99.90;;;;;;5071639;28;20029;-79
2020/12/20 04:48:36;;;;;;;39.85;21.02;;;7.10;99.90;;;;;;5071546;28;20032;-79
2020/12/20 04:51:04;;;;;;;51.60;21.15;;;7.10;99.90;;;;;;5070588;28;20028;-79
2020/12/20 04:53:30;;;;;;;38.92;20.95;;;7.10;99.90;;;;;;5050504;28;20045;-79
2020/12/20 04:56:05;;;;;;;41.30;22.17;;;7.10;99.90;;;;;;5051653;28;20389;-79
2020/12/20 04:58:32;;;;;;;35.42;20.67;;;7.10;99.90;;;;;;5050315;28;20029;-80
2020/12/20 05:00:58;;;;;;;35.83;20.98;;;7.20;99.90;;;;;;5051745;28;20036;-79
2020/12/20 05:03:25;;;;;;;34.00;19.63;;;7.20;99.90;;;;;;5051665;28;20021;-79
2020/12/20 05:05:50;;;;;;;35.20;19.15;;;7.20;99.90;;;;;;5051495;28;20547;-80
2020/12/20 05:08:22;;;;;;;43.63;22.13;;;7.10;99.90;;;;;;5050358;28;20021;-79
2020/12/20 05:10:48;;;;;;;34.35;18.55;;;7.20;99.90;;;;;;5051581;28;20033;-79
2020/12/20 05:13:14;;;;;;;33.08;20.55;;;7.30;99.90;;;;;;5051759;28;20094;-79
2020/12/20 05:15:40;;;;;;;37.63;20.98;;;7.40;99.90;;;;;;5050100;28;20044;-79
2020/12/20 05:18:17;;;;;;;35.58;20.83;;;7.40;99.90;;;;;;5051632;28;20025;-80
2020/12/20 05:20:44;;;;;;;47.78;19.52;;;7.40;99.90;;;;;;5052144;28;20017;-79
2020/12/20 05:23:11;;;;;;;40.92;22.63;;;7.50;99.90;;;;;;5051937;28;20033;-79
2020/12/20 05:25:38;;;;;;;35.42;21.00;;;7.60;99.90;;;;;;5050181;28;20440;-79
2020/12/20 05:28:06;;;;;;;33.17;20.70;;;7.40;99.90;;;;;;5050139;28;20033;-79
2020/12/20 05:30:32;;;;;;;35.80;20.50;;;7.30;99.90;;;;;;5050083;28;20033;-79
2020/12/20 05:32:57;;;;;;;36.10;21.17;;;7.30;99.90;;;;;;5051331;28;20027;-80
2020/12/20 05:35:23;;;;;;;38.70;21.02;;;7.30;99.90;;;;;;5049840;28;20021;-79
2020/12/20 05:37:49;;;;;;;39.85;21.50;;;7.30;99.90;;;;;;5051123;28;20025;-79
2020/12/20 05:40:30;;;;;;;40.78;21.35;;;7.10;99.90;;;;;;5054827;28;20029;-79
2020/12/20 05:43:04;;;;;;;43.92;21.25;;;7.00;99.90;;;;;;5054779;28;20060;-79
2020/12/20 05:45:32;;;;;;;38.75;21.80;;;7.00;99.90;;;;;;5054665;28;20036;-79
2020/12/20 05:47:57;;;;;;;43.17;23.23;;;6.90;99.90;;;;;;5054721;28;20036;-79
2020/12/20 05:50:28;;;;;;;40.33;24.52;;;6.90;99.90;;;;;;5053369;28;20417;-79
2020/12/20 05:53:05;;;;;;;47.90;24.40;;;7.00;99.90;;;;;;5053272;28;20029;-79
2020/12/20 05:55:39;;;;;;;35.55;22.38;;;6.90;99.90;;;;;;5069841;28;20112;-79
2020/12/20 05:58:12;;;;;;;35.42;22.25;;;6.90;99.90;;;;;;5054470;28;20166;-79
2020/12/20 06:00:43;;;;;;;40.38;24.38;;;6.90;99.90;;;;;;5054599;28;20025;-79
2020/12/20 06:03:10;;;;;;;37.55;22.27;;;6.90;99.90;;;;;;5054525;28;20064;-80
2020/12/20 06:05:41;;;;;;;35.72;23.50;;;6.90;99.90;;;;;;5054309;28;20029;-80
2020/12/20 06:08:13;;;;;;;40.15;23.40;;;6.90;99.90;;;;;;5054325;28;20466;-79
2020/12/20 06:10:42;;;;;;;41.90;22.77;;;6.80;99.90;;;;;;5054241;28;20374;-79
2020/12/20 06:13:10;;;;;;;39.60;24.05;;;6.80;99.90;;;;;;5054266;28;20017;-82
2020/12/20 06:15:39;;;;;;;40.50;22.15;;;6.80;99.90;;;;;;5053965;28;20151;-79
2020/12/20 06:18:12;;;;;;;37.78;23.58;;;6.90;99.90;;;;;;5069643;28;20025;-81
2020/12/20 06:21:01;;;;;;;33.53;23.15;;;6.70;99.90;;;;;;5069639;28;20612;-82
2020/12/20 06:23:28;;;;;;;36.17;22.60;;;6.70;99.90;;;;;;5054233;28;20029;-81
2020/12/20 06:25:55;;;;;;;40.15;23.38;;;6.70;99.90;;;;;;5069290;28;20029;-79
2020/12/20 06:28:28;;;;;;;40.00;22.90;;;6.70;99.90;;;;;;5054012;28;20146;-79
2020/12/20 06:30:55;;;;;;;38.60;23.38;;;6.70;99.90;;;;;;5053930;28;20025;-79
2020/12/20 06:33:38;;;;;;;40.13;24.50;;;6.70;99.90;;;;;;5053922;28;20634;-80
2020/12/20 06:36:09;;;;;;;36.33;23.45;;;6.70;99.90;;;;;;5053801;28;20481;-79
2020/12/20 06:38:35;;;;;;;40.80;24.90;;;6.70;99.90;;;;;;5053861;28;20032;-79
2020/12/20 06:41:01;;;;;;;37.13;24.50;;;6.70;99.90;;;;;;5053806;28;20151;-79
2020/12/20 06:43:32;;;;;;;43.20;24.25;;;6.70;99.90;;;;;;5053641;28;20052;-79
2020/12/20 06:45:59;;;;;;;40.78;22.30;;;6.70;99.90;;;;;;5053582;28;20056;-80
2020/12/20 06:48:39;;;;;;;40.13;22.30;;;6.50;99.90;;;;;;5069034;28;20482;-83
2020/12/20 06:51:06;;;;;;;39.65;21.77;;;6.30;99.90;;;;;;5053962;28;20079;-79
2020/12/20 06:53:52;;;;;;;39.55;22.77;;;6.20;99.90;;;;;;5073550;28;20779;-80
2020/12/20 06:56:24;;;;;;;47.63;22.27;;;6.10;99.90;;;;;;5072194;28;20029;-80
2020/12/20 06:58:52;;;;;;;34.85;20.55;;;6.00;99.90;;;;;;5073576;28;20044;-81
2020/12/20 07:01:37;;;;;;;43.35;23.40;;;5.90;99.90;;;;;;5073496;28;20050;-80
2020/12/20 07:04:04;;;;;;;37.08;21.05;;;5.80;99.90;;;;;;5073148;28;20024;-83
2020/12/20 07:06:30;;;;;;;42.97;22.67;;;5.70;99.90;;;;;;5072069;28;20050;-79
2020/12/20 07:08:58;;;;;;;53.33;22.45;;;5.60;99.90;;;;;;5073353;28;20484;-80
2020/12/20 07:11:26;;;;;;;35.50;21.45;;;5.50;99.90;;;;;;5071909;28;20025;-80
2020/12/20 07:13:54;;;;;;;36.03;21.40;;;5.50;99.90;;;;;;5072800;28;20095;-79
2020/12/20 07:16:22;;;;;;;44.78;25.75;;;5.40;99.90;;;;;;5071683;28;20033;-80
2020/12/20 07:18:51;;;;;;;45.03;25.10;;;5.40;99.90;;;;;;5059658;28;20021;-81
2020/12/20 07:21:19;;;;;;;44.03;25.77;;;5.40;99.90;;;;;;5068189;28;20033;-80
2020/12/20 07:23:52;;;;;;;49.60;25.13;;;5.40;99.90;;;;;;5052526;28;20366;-80
2020/12/20 07:26:18;;;;;;;45.72;25.10;;;5.50;99.90;;;;;;5052521;28;20090;-80
2020/12/20 07:28:44;;;;;;;52.67;27.13;;;5.50;99.90;;;;;;5052839;28;20075;-81
2020/12/20 07:31:15;;;;;;;58.30;27.85;;;5.50;99.90;;;;;;5052298;28;20489;-79
2020/12/20 07:33:41;;;;;;;42.17;23.23;;;5.50;99.90;;;;;;5068464;28;20025;-80
2020/12/20 07:36:06;;;;;;;50.95;26.55;;;5.50;99.90;;;;;;5062762;28;20100;-79
2020/12/20 07:38:32;;;;;;;48.33;25.27;;;5.50;99.90;;;;;;5072531;28;20508;-80
2020/12/20 07:40:58;;;;;;;51.00;26.48;;;5.50;99.90;;;;;;5071735;28;20389;-79
2020/12/20 07:43:23;;;;;;;51.53;26.13;;;5.50;99.90;;;;;;5071897;28;20056;-78
2020/12/20 07:46:00;;;;;;;50.33;25.88;;;5.50;99.90;;;;;;5072407;28;20040;-79
2020/12/20 07:48:26;;;;;;;42.03;24.60;;;5.60;99.90;;;;;;5072467;28;20078;-79
2020/12/20 07:51:05;;;;;;;57.35;26.02;;;5.70;99.90;;;;;;5071132;28;20024;-79
2020/12/20 07:53:31;;;;;;;43.85;26.20;;;5.70;99.90;;;;;;5052576;28;20049;-79
2020/12/20 07:55:56;;;;;;;45.53;26.63;;;5.80;99.90;;;;;;5052192;28;20515;-79
2020/12/20 07:58:22;;;;;;;48.35;27.38;;;5.80;99.90;;;;;;5052027;28;20501;-79
2020/12/20 08:00:48;;;;;;;47.00;27.27;;;5.90;99.90;;;;;;5052212;28;20109;-80
2020/12/20 08:03:15;;;;;;;60.47;26.02;;;5.90;99.90;;;;;;5052202;28;20048;-80
2020/12/20 08:05:40;;;;;;;43.67;25.50;;;6.00;99.90;;;;;;5051902;28;20053;-79
2020/12/20 08:08:06;;;;;;;45.05;27.38;;;6.00;99.90;;;;;;5050831;28;20114;-83
2020/12/20 08:10:32;;;;;;;48.25;24.98;;;6.10;99.90;;;;;;5050669;28;20166;-79
2020/12/20 08:12:58;;;;;;;51.95;25.85;;;6.00;99.90;;;;;;5051928;28;20108;-79
2020/12/20 08:15:23;;;;;;;47.28;26.13;;;6.10;99.90;;;;;;5051870;28;20021;-79
2020/12/20 08:17:49;;;;;;;51.08;25.90;;;6.10;99.90;;;;;;5050394;28;20116;-79
2020/12/20 08:20:15;;;;;;;43.30;23.73;;;6.20;99.90;;;;;;5051907;28;20072;-80
2020/12/20 08:22:42;;;;;;;40.17;25.75;;;6.20;99.90;;;;;;5051896;28;20071;-80
2020/12/20 08:25:09;;;;;;;44.33;25.52;;;6.20;99.90;;;;;;5051703;28;20099;-80
2020/12/20 08:27:37;;;;;;;47.97;24.98;;;6.20;99.90;;;;;;5050323;28;20099;-80
2020/12/20 08:30:05;;;;;;;41.13;25.63;;;6.30;99.90;;;;;;5051724;28;20056;-79
2020/12/20 08:32:42;;;;;;;40.38;22.23;;;6.30;99.90;;;;;;5051909;28;20045;-79
2020/12/20 08:35:20;;;;;;;39.75;24.02;;;6.30;99.90;;;;;;5051581;28;20021;-79
2020/12/20 08:37:51;;;;;;;41.25;25.73;;;6.30;99.90;;;;;;5051525;28;20021;-79
2020/12/20 08:40:17;;;;;;;35.28;22.70;;;6.40;99.90;;;;;;5050442;28;20064;-80
2020/12/20 08:42:46;;;;;;;39.38;23.67;;;6.50;99.90;;;;;;5051578;28;20033;-79
2020/12/20 08:45:13;;;;;;;39.30;22.45;;;6.60;99.90;;;;;;5051558;28;20035;-79
2020/12/20 08:47:39;;;;;;;43.53;23.50;;;6.70;99.90;;;;;;5051486;28;20021;-79
2020/12/20 08:50:05;;;;;;;43.20;22.23;;;6.60;99.90;;;;;;5051488;28;20360;-79
2020/12/20 08:52:31;;;;;;;46.30;23.15;;;6.70;99.90;;;;;;5064711;28;20025;-79
2020/12/20 08:55:02;;;;;;;35.70;21.90;;;6.60;99.90;;;;;;5070100;28;20392;-79
2020/12/20 08:57:29;;;;;;;37.75;22.67;;;6.70;99.90;;;;;;5071571;28;20100;-81
2020/12/20 09:00:09;;;;;;;43.30;22.30;;;6.80;99.90;;;;;;5071435;28;20040;-80
2020/12/20 09:02:35;;;;;;;38.30;20.77;;;6.80;99.90;;;;;;5071628;28;20024;-80
2020/12/20 09:05:13;;;;;;;47.40;22.33;;;7.00;99.90;;;;;;5071121;28;20071;-79
2020/12/20 09:07:40;;;;;;;42.15;21.25;;;7.10;99.90;;;;;;5071430;28;20020;-79
2020/12/20 09:10:18;;;;;;;35.75;20.48;;;7.10;99.90;;;;;;5071346;28;20021;-80
2020/12/20 09:12:50;;;;;;;29.38;19.23;;;7.10;99.90;;;;;;5071598;28;20086;-79
2020/12/20 09:15:18;;;;;;;30.95;17.85;;;7.20;99.90;;;;;;5074954;28;20028;-80
2020/12/20 09:17:47;;;;;;;46.40;18.95;;;7.20;99.90;;;;;;5075105;28;20037;-79
2020/12/20 09:20:15;;;;;;;31.95;16.85;;;7.20;99.90;;;;;;5075436;28;20481;-79
2020/12/20 09:22:54;;;;;;;39.22;17.80;;;7.20;99.90;;;;;;5073925;28;20024;-80
2020/12/20 09:25:33;;;;;;;27.83;17.85;;;7.20;99.90;;;;;;5073827;28;20045;-79
2020/12/20 09:28:05;;;;;;;31.05;16.30;;;7.30;99.90;;;;;;5074964;28;20024;-79
2020/12/20 09:30:36;;;;;;;27.40;17.42;;;7.30;99.90;;;;;;5073617;28;20028;-79
2020/12/20 09:33:18;;;;;;;29.05;17.02;;;7.30;99.90;;;;;;5073886;28;20025;-78
2020/12/20 09:35:56;;;;;;;31.23;17.85;;;7.30;99.90;;;;;;5074837;28;20393;-79
2020/12/20 09:38:25;;;;;;;30.20;18.00;;;7.30;99.90;;;;;;5074899;28;20043;-79
2020/12/20 09:41:02;;;;;;;32.63;17.45;;;7.40;99.90;;;;;;5075116;28;20033;-79
2020/12/20 09:43:28;;;;;;;34.20;17.13;;;7.40;99.90;;;;;;5073599;28;20029;-79
2020/12/20 09:45:54;;;;;;;33.70;16.35;;;7.40;99.90;;;;;;5073566;28;20545;-79
2020/12/20 09:48:20;;;;;;;35.08;17.55;;;7.50;99.90;;;;;;5073703;28;20032;-79
2020/12/20 09:50:45;;;;;;;27.63;16.52;;;7.50;99.90;;;;;;5073494;28;20484;-81
2020/12/20 09:53:11;;;;;;;29.42;15.65;;;7.50;99.90;;;;;;5055901;28;20025;-79
2020/12/20 09:55:41;;;;;;;30.05;17.42;;;7.50;99.90;;;;;;5054632;28;20021;-79
2020/12/20 09:58:13;;;;;;;32.63;17.27;;;7.60;99.90;;;;;;5054769;28;20028;-79
2020/12/20 10:00:40;;;;;;;25.05;17.27;;;7.60;99.90;;;;;;5055352;28;20036;-79
2020/12/20 10:03:06;;;;;;;39.28;17.90;;;7.60;99.90;;;;;;5053461;28;20477;-80
2020/12/20 10:05:32;;;;;;;26.85;14.98;;;7.60;99.90;;;;;;5054400;28;20033;-79
2020/12/20 10:07:58;;;;;;;26.98;16.60;;;7.70;99.90;;;;;;5054475;28;20033;-78
2020/12/20 10:10:23;;;;;;;23.90;15.18;;;7.80;99.90;;;;;;5054472;28;20100;-79
2020/12/20 10:12:49;;;;;;;34.30;15.52;;;7.80;99.90;;;;;;5053013;28;20074;-79
2020/12/20 10:15:15;;;;;;;28.95;15.27;;;7.80;99.90;;;;;;5054917;28;20020;-79
2020/12/20 10:17:40;;;;;;;26.25;14.98;;;7.90;99.90;;;;;;5053405;28;20037;-79
2020/12/20 10:20:06;;;;;;;31.88;16.90;;;7.90;99.90;;;;;;5058281;28;20021;-79
2020/12/20 10:22:31;;;;;;;32.25;15.40;;;8.00;99.90;;;;;;5072654;28;20060;-79
2020/12/20 10:24:57;;;;;;;25.83;14.45;;;8.10;99.90;;;;;;5072658;28;20036;-80
2020/12/20 10:27:22;;;;;;;25.35;13.95;;;8.00;99.90;;;;;;5073848;28;20036;-79
2020/12/20 10:29:48;;;;;;;25.60;14.73;;;8.10;99.90;;;;;;5073898;28;20036;-79
2020/12/20 10:32:14;;;;;;;19.58;14.20;;;8.20;99.90;;;;;;5074017;28;20055;-81
2020/12/20 10:34:41;;;;;;;21.65;13.77;;;8.20;99.90;;;;;;5073512;28;20499;-81
2020/12/20 10:37:06;;;;;;;22.83;14.70;;;8.20;99.90;;;;;;5072397;28;20070;-81
2020/12/20 10:39:32;;;;;;;24.02;15.02;;;8.30;99.90;;;;;;5073832;28;20025;-81
2020/12/20 10:41:58;;;;;;;28.17;15.27;;;8.20;99.90;;;;;;5073778;28;20025;-80
2020/12/20 10:44:24;;;;;;;21.73;14.00;;;8.30;99.90;;;;;;5073476;28;20438;-81
2020/12/20 10:46:54;;;;;;;25.23;16.45;;;8.30;99.90;;;;;;5073589;28;20023;-80
2020/12/20 10:49:20;;;;;;;23.83;14.38;;;8.30;99.90;;;;;;5073594;28;20047;-81
2020/12/20 10:51:55;;;;;;;23.98;13.63;;;8.20;99.90;;;;;;5066132;28;20107;-80
2020/12/20 10:54:21;;;;;;;24.08;14.10;;;8.30;99.90;;;;;;5053444;28;20032;-79
2020/12/20 10:56:48;;;;;;;26.48;14.82;;;8.30;99.90;;;;;;5053442;28;20090;-79
2020/12/20 10:59:14;;;;;;;23.65;13.90;;;8.30;99.90;;;;;;5055640;28;20020;-81
2020/12/20 11:01:40;;;;;;;27.10;13.45;;;8.40;99.90;;;;;;5053221;28;20454;-81
2020/12/20 11:04:06;;;;;;;21.80;13.30;;;8.50;99.90;;;;;;5051927;28;20079;-81
2020/12/20 11:06:31;;;;;;;24.80;13.70;;;8.50;99.90;;;;;;5052596;28;20025;-81
2020/12/20 11:08:57;;;;;;;25.38;13.88;;;8.60;99.90;;;;;;5068475;28;20083;-81
2020/12/20 11:11:29;;;;;;;25.05;14.18;;;8.70;99.90;;;;;;5061943;28;20097;-81
2020/12/20 11:13:55;;;;;;;24.00;13.00;;;8.70;99.90;;;;;;5068273;28;20028;-82
2020/12/20 11:16:21;;;;;;;24.27;13.00;;;8.80;99.90;;;;;;5052921;28;20073;-82
2020/12/20 11:18:47;;;;;;;27.08;13.70;;;8.90;99.90;;;;;;5053039;28;20504;-83
2020/12/20 11:21:14;;;;;;;25.20;12.82;;;9.00;99.90;;;;;;5053112;28;20021;-83
2020/12/20 11:23:40;;;;;;;25.42;12.88;;;9.10;99.90;;;;;;5051636;28;20453;-82
2020/12/20 11:26:25;;;;;;;28.88;12.88;;;9.00;99.90;;;;;;5050931;28;20115;-83
2020/12/20 11:28:52;;;;;;;21.27;13.15;;;9.00;99.90;;;;;;5058293;28;20115;-83
2020/12/20 11:31:20;;;;;;;21.05;11.82;;;9.10;99.90;;;;;;5052641;28;20029;-83
2020/12/20 11:33:47;;;;;;;20.30;13.05;;;9.00;99.90;;;;;;5070175;28;20025;-83
2020/12/20 11:36:24;;;;;;;20.40;11.75;;;9.00;99.90;;;;;;5071287;28;20020;-82
2020/12/20 11:38:51;;;;;;;21.10;12.70;;;9.10;99.90;;;;;;5071043;28;20025;-81
2020/12/20 11:41:21;;;;;;;22.17;11.90;;;9.10;99.90;;;;;;5071219;28;20517;-82
2020/12/20 11:43:47;;;;;;;26.83;13.48;;;9.20;99.90;;;;;;5070040;28;20574;-83
2020/12/20 11:46:12;;;;;;;22.73;13.20;;;9.30;99.90;;;;;;5056921;28;20389;-83
2020/12/20 11:48:38;;;;;;;22.00;12.30;;;9.10;99.90;;;;;;5052151;28;20033;-83
2020/12/20 11:51:04;;;;;;;17.58;11.85;;;9.30;99.90;;;;;;5054174;28;20036;-83
2020/12/20 11:53:30;;;;;;;21.25;12.13;;;9.20;99.90;;;;;;5073106;28;20020;-82
2020/12/20 11:55:55;;;;;;;24.90;12.27;;;9.30;99.90;;;;;;5073692;28;20028;-82
2020/12/20 11:58:21;;;;;;;30.63;13.40;;;9.20;99.90;;;;;;5070947;28;20040;-83
2020/12/20 12:00:48;;;;;;;24.30;13.15;;;9.20;99.90;;;;;;5071911;28;20481;-81
2020/12/20 12:03:14;;;;;;;21.33;12.40;;;9.20;99.90;;;;;;5069888;28;20028;-82
2020/12/20 12:05:44;;;;;;;29.08;12.80;;;9.20;99.90;;;;;;5060395;28;20051;-83
2020/12/20 12:08:11;;;;;;;23.13;12.73;;;9.20;99.90;;;;;;5071599;28;20042;-83
2020/12/20 12:10:42;;;;;;;20.02;12.63;;;9.20;99.90;;;;;;5070588;28;20443;-82
2020/12/20 12:13:08;;;;;;;24.40;11.73;;;9.20;99.90;;;;;;5070654;28;20046;-82
2020/12/20 12:15:35;;;;;;;21.08;13.13;;;9.20;99.90;;;;;;5067620;28;20051;-81
2020/12/20 12:18:01;;;;;;;26.02;13.13;;;9.20;99.90;;;;;;5052315;28;20068;-81
2020/12/20 12:20:26;;;;;;;22.73;12.73;;;9.20;99.90;;;;;;5051948;28;20072;-81
2020/12/20 12:22:52;;;;;;;24.10;12.15;;;9.20;99.90;;;;;;5050372;28;20125;-82
2020/12/20 12:25:18;;;;;;;23.60;12.30;;;9.20;99.90;;;;;;5060487;28;20073;-80
2020/12/20 12:27:44;;;;;;;22.77;13.13;;;9.20;99.90;;;;;;5090338;28;20038;-80
2020/12/20 12:30:10;;;;;;;25.85;13.95;;;9.10;99.90;;;;;;5077162;28;20123;-79
2020/12/20 12:32:37;;;;;;;23.13;11.57;;;9.10;99.90;;;;;;5070420;28;20548;-81
2020/12/20 12:35:04;;;;;;;31.27;13.05;;;9.10;99.90;;;;;;5065672;28;20473;-80
2020/12/20 12:37:30;;;;;;;28.42;13.10;;;9.10;99.90;;;;;;5051477;28;20021;-80